sensor_id;sensor_type;location;lat;lon;timestamp;pressure;altitude;pressure_sealevel;temperature;humidity
3142;BME280;1581;51.568;6.998;2023-08-24T00:00:56;101105.91;;;20.79;100.00
3142;BME280;1581;51.568;6.998;2023-08-24T00:03:25;101091.44;;;20.73;100.00
3142;BME280;1581;51.568;6.998;2023-08-24T00:05:53;101092.69;;;20.82;100.00
3142;BME280;1581;51.568;6.998;2023-08-24T00:08:21;101090.25;;;20.81;100.00
3142;BME280;1581;51.568;6.998;2023-08-24T00:10:49;101087.59;;;20.85;100.00
3142;BME280;1581;51.568;6.998;2023-08-24T00:13:17;101086.38;;;20.93;100.00
3142;BME280;1581;51.568;6.998;2023-08-24T00:15:45;101092.69;;;20.98;100.00
3142;BME280;1581;51.568;6.998;2023-08-24T00:18:13;101081.59;;;21.00;100.00
3142;BME280;1581;51.568;6.998;2023-08-24T00:20:42;101082.75;;;21.04;100.00
3142;BME280;1581;51.568;6.998;2023-08-24T00:23:11;101081.41;;;21.06;100.00
3142;BME280;1581;51.568;6.998;2023-08-24T00:25:39;101078.72;;;21.06;100.00
3142;BME280;1581;51.568;6.998;2023-08-24T00:28:08;101078.72;;;21.06;100.00
3142;BME280;1581;51.568;6.998;2023-08-24T00:30:36;101073.41;;;20.95;100.00
3142;BME280;1581;51.568;6.998;2023-08-24T00:33:04;101077.97;;;20.94;100.00
3142;BME280;1581;51.568;6.998;2023-08-24T00:35:32;101074.84;;;21.02;100.00
3142;BME280;1581;51.568;6.998;2023-08-24T00:38:01;101075.91;;;21.01;100.00
3142;BME280;1581;51.568;6.998;2023-08-24T00:40:29;101069.84;;;20.94;100.00
3142;BME280;1581;51.568;6.998;2023-08-24T00:42:58;101061.13;;;20.92;100.00
3142;BME280;1581;51.568;6.998;2023-08-24T00:45:26;101062.16;;;20.86;100.00
3142;BME280;1581;51.568;6.998;2023-08-24T00:47:54;101058.22;;;20.78;100.00
3142;BME280;1581;51.568;6.998;2023-08-24T00:50:22;101062.69;;;20.72;100.00
3142;BME280;1581;51.568;6.998;2023-08-24T00:52:50;101069.59;;;20.63;100.00
3142;BME280;1581;51.568;6.998;2023-08-24T00:55:23;101065.97;;;20.58;100.00
3142;BME280;1581;51.568;6.998;2023-08-24T00:57:50;101083.13;;;20.47;100.00
3142;BME280;1581;51.568;6.998;2023-08-24T01:00:19;101067.84;;;20.41;100.00
3142;BME280;1581;51.568;6.998;2023-08-24T01:02:47;101073.28;;;20.41;100.00
3142;BME280;1581;51.568;6.998;2023-08-24T01:05:15;101071.19;;;20.31;100.00
3142;BME280;1581;51.568;6.998;2023-08-24T01:07:43;101072.66;;;20.22;100.00
3142;BME280;1581;51.568;6.998;2023-08-24T01:10:15;101077.16;;;20.17;100.00
3142;BME280;1581;51.568;6.998;2023-08-24T01:12:59;101077.31;;;20.10;100.00
3142;BME280;1581;51.568;6.998;2023-08-24T01:15:37;101070.88;;;20.00;100.00
3142;BME280;1581;51.568;6.998;2023-08-24T01:18:11;101069.94;;;19.94;100.00
3142;BME280;1581;51.568;6.998;2023-08-24T01:20:42;101064.22;;;19.80;100.00
3142;BME280;1581;51.568;6.998;2023-08-24T01:23:25;101061.75;;;19.78;100.00
3142;BME280;1581;51.568;6.998;2023-08-24T01:26:10;101050.81;;;19.73;100.00
3142;BME280;1581;51.568;6.998;2023-08-24T01:28:38;101057.53;;;19.71;100.00
3142;BME280;1581;51.568;6.998;2023-08-24T01:31:06;101056.25;;;19.73;100.00
3142;BME280;1581;51.568;6.998;2023-08-24T01:33:34;101061.66;;;19.73;100.00
3142;BME280;1581;51.568;6.998;2023-08-24T01:36:02;101060.00;;;19.72;100.00
3142;BME280;1581;51.568;6.998;2023-08-24T01:38:31;101058.59;;;19.70;100.00
3142;BME280;1581;51.568;6.998;2023-08-24T01:41:10;101050.28;;;19.60;100.00
3142;BME280;1581;51.568;6.998;2023-08-24T01:43:40;101050.41;;;19.65;100.00
3142;BME280;1581;51.568;6.998;2023-08-24T01:46:12;101050.53;;;19.58;100.00
3142;BME280;1581;51.568;6.998;2023-08-24T01:48:43;101049.34;;;19.54;100.00
3142;BME280;1581;51.568;6.998;2023-08-24T01:51:11;101044.66;;;19.50;100.00
3142;BME280;1581;51.568;6.998;2023-08-24T01:53:40;101044.66;;;19.50;100.00
3142;BME280;1581;51.568;6.998;2023-08-24T01:56:11;101043.88;;;19.49;100.00
3142;BME280;1581;51.568;6.998;2023-08-24T01:58:39;101047.38;;;19.50;100.00
3142;BME280;1581;51.568;6.998;2023-08-24T02:01:07;101041.88;;;19.45;100.00
3142;BME280;1581;51.568;6.998;2023-08-24T02:03:36;101028.38;;;19.45;100.00
3142;BME280;1581;51.568;6.998;2023-08-24T02:06:05;101034.38;;;19.35;100.00
3142;BME280;1581;51.568;6.998;2023-08-24T02:08:33;101035.41;;;19.34;100.00
3142;BME280;1581;51.568;6.998;2023-08-24T02:11:01;101039.78;;;19.35;100.00
3142;BME280;1581;51.568;6.998;2023-08-24T02:13:30;101035.41;;;19.34;100.00
3142;BME280;1581;51.568;6.998;2023-08-24T02:16:03;101031.81;;;19.17;100.00
3142;BME280;1581;51.568;6.998;2023-08-24T02:18:31;101036.84;;;19.25;100.00
3142;BME280;1581;51.568;6.998;2023-08-24T02:20:59;101045.44;;;19.22;100.00
3142;BME280;1581;51.568;6.998;2023-08-24T02:23:27;101039.69;;;19.19;100.00
3142;BME280;1581;51.568;6.998;2023-08-24T02:25:56;101029.13;;;19.17;100.00
3142;BME280;1581;51.568;6.998;2023-08-24T02:28:24;101024.19;;;19.14;100.00
3142;BME280;1581;51.568;6.998;2023-08-24T02:30:53;101029.72;;;19.19;100.00
3142;BME280;1581;51.568;6.998;2023-08-24T02:33:21;101021.72;;;19.13;100.00
3142;BME280;1581;51.568;6.998;2023-08-24T02:35:49;101021.47;;;19.14;100.00
3142;BME280;1581;51.568;6.998;2023-08-24T02:38:17;101024.31;;;19.19;100.00
3142;BME280;1581;51.568;6.998;2023-08-24T02:40:44;101020.88;;;19.24;100.00
3142;BME280;1581;51.568;6.998;2023-08-24T02:43:12;101027.59;;;19.21;100.00
3142;BME280;1581;51.568;6.998;2023-08-24T02:45:40;101015.59;;;19.17;100.00
3142;BME280;1581;51.568;6.998;2023-08-24T02:48:09;101018.56;;;19.16;100.00
3142;BME280;1581;51.568;6.998;2023-08-24T02:50:37;101015.59;;;19.17;100.00
3142;BME280;1581;51.568;6.998;2023-08-24T02:53:05;101023.34;;;19.25;100.00
3142;BME280;1581;51.568;6.998;2023-08-24T02:55:33;101018.78;;;19.26;100.00
3142;BME280;1581;51.568;6.998;2023-08-24T02:58:01;101013.94;;;19.28;100.00
3142;BME280;1581;51.568;6.998;2023-08-24T03:00:29;101016.75;;;19.33;100.00
3142;BME280;1581;51.568;6.998;2023-08-24T03:02:57;101030.13;;;19.39;100.00
3142;BME280;1581;51.568;6.998;2023-08-24T03:05:26;101027.53;;;19.44;100.00
3142;BME280;1581;51.568;6.998;2023-08-24T03:07:54;101032.59;;;19.41;100.00
3142;BME280;1581;51.568;6.998;2023-08-24T03:10:22;101046.69;;;19.43;100.00
3142;BME280;1581;51.568;6.998;2023-08-24T03:12:50;101037.53;;;19.44;100.00
3142;BME280;1581;51.568;6.998;2023-08-24T03:15:18;101021.19;;;19.50;100.00
3142;BME280;1581;51.568;6.998;2023-08-24T03:17:47;101016.13;;;19.42;100.00
3142;BME280;1581;51.568;6.998;2023-08-24T03:20:15;101010.97;;;19.41;100.00
3142;BME280;1581;51.568;6.998;2023-08-24T03:22:44;101014.50;;;19.41;100.00
3142;BME280;1581;51.568;6.998;2023-08-24T03:25:12;101011.09;;;19.34;100.00
3142;BME280;1581;51.568;6.998;2023-08-24T03:27:40;101007.69;;;19.39;100.00
3142;BME280;1581;51.568;6.998;2023-08-24T03:30:09;101009.66;;;19.43;100.00
3142;BME280;1581;51.568;6.998;2023-08-24T03:32:37;101014.50;;;19.41;100.00
3142;BME280;1581;51.568;6.998;2023-08-24T03:35:05;101029.41;;;19.44;100.00
3142;BME280;1581;51.568;6.998;2023-08-24T03:37:34;101021.41;;;19.49;100.00
3142;BME280;1581;51.568;6.998;2023-08-24T03:40:04;101028.13;;;19.46;100.00
3142;BME280;1581;51.568;6.998;2023-08-24T03:42:33;101034.31;;;19.47;100.00
3142;BME280;1581;51.568;6.998;2023-08-24T03:45:01;101037.97;;;19.52;100.00
3142;BME280;1581;51.568;6.998;2023-08-24T03:47:29;101037.16;;;19.52;100.00
3142;BME280;1581;51.568;6.998;2023-08-24T03:49:58;101040.56;;;19.47;100.00
3142;BME280;1581;51.568;6.998;2023-08-24T03:52:29;101040.91;;;19.51;100.00
3142;BME280;1581;51.568;6.998;2023-08-24T03:54:57;101034.56;;;19.45;100.00
3142;BME280;1581;51.568;6.998;2023-08-24T03:57:27;101035.41;;;19.46;100.00
3142;BME280;1581;51.568;6.998;2023-08-24T03:59:55;101037.97;;;19.52;100.00
3142;BME280;1581;51.568;6.998;2023-08-24T04:02:23;101034.69;;;19.50;100.00
3142;BME280;1581;51.568;6.998;2023-08-24T04:04:51;101035.81;;;19.66;100.00
3142;BME280;1581;51.568;6.998;2023-08-24T04:07:19;101015.19;;;19.76;100.00
3142;BME280;1581;51.568;6.998;2023-08-24T04:09:47;101010.13;;;19.80;100.00
3142;BME280;1581;51.568;6.998;2023-08-24T04:12:15;100995.88;;;19.84;100.00
3142;BME280;1581;51.568;6.998;2023-08-24T04:14:44;100992.69;;;19.87;100.00
3142;BME280;1581;51.568;6.998;2023-08-24T04:17:12;100993.59;;;19.92;100.00
3142;BME280;1581;51.568;6.998;2023-08-24T04:19:40;100985.22;;;19.94;100.00
3142;BME280;1581;51.568;6.998;2023-08-24T04:22:08;100986.06;;;19.94;100.00
3142;BME280;1581;51.568;6.998;2023-08-24T04:24:36;100982.91;;;19.97;100.00
3142;BME280;1581;51.568;6.998;2023-08-24T04:27:04;100982.34;;;19.95;100.00
3142;BME280;1581;51.568;6.998;2023-08-24T04:29:32;100977.59;;;20.02;100.00
3142;BME280;1581;51.568;6.998;2023-08-24T04:32:02;100977.47;;;19.97;100.00
3142;BME280;1581;51.568;6.998;2023-08-24T04:34:30;100973.97;;;19.97;100.00
3142;BME280;1581;51.568;6.998;2023-08-24T04:36:58;100967.88;;;19.90;100.00
3142;BME280;1581;51.568;6.998;2023-08-24T04:39:27;100957.59;;;20.03;100.00
3142;BME280;1581;51.568;6.998;2023-08-24T04:41:56;100969.53;;;20.07;100.00
3142;BME280;1581;51.568;6.998;2023-08-24T04:44:24;100967.41;;;20.09;100.00
3142;BME280;1581;51.568;6.998;2023-08-24T04:46:52;100959.56;;;20.08;100.00
3142;BME280;1581;51.568;6.998;2023-08-24T04:49:21;100951.13;;;20.04;100.00
3142;BME280;1581;51.568;6.998;2023-08-24T04:51:49;100937.91;;;20.08;100.00
3142;BME280;1581;51.568;6.998;2023-08-24T04:54:20;100929.38;;;20.16;100.00
3142;BME280;1581;51.568;6.998;2023-08-24T04:56:47;100916.50;;;20.23;100.00
3142;BME280;1581;51.568;6.998;2023-08-24T04:59:15;100900.56;;;20.26;100.00
3142;BME280;1581;51.568;6.998;2023-08-24T05:01:43;100896.31;;;20.30;100.00
3142;BME280;1581;51.568;6.998;2023-08-24T05:04:11;100885.97;;;20.27;100.00
3142;BME280;1581;51.568;6.998;2023-08-24T05:06:40;100880.09;;;20.30;100.00
3142;BME280;1581;51.568;6.998;2023-08-24T05:09:08;100881.88;;;20.25;100.00
3142;BME280;1581;51.568;6.998;2023-08-24T05:11:35;100876.00;;;20.28;100.00
3142;BME280;1581;51.568;6.998;2023-08-24T05:14:03;100874.84;;;20.24;100.00
3142;BME280;1581;51.568;6.998;2023-08-24T05:16:31;100867.69;;;20.34;100.00
3142;BME280;1581;51.568;6.998;2023-08-24T05:19:00;100881.28;;;20.39;100.00
3142;BME280;1581;51.568;6.998;2023-08-24T05:21:29;100882.13;;;20.40;100.00
3142;BME280;1581;51.568;6.998;2023-08-24T05:23:58;100890.78;;;20.42;100.00
3142;BME280;1581;51.568;6.998;2023-08-24T05:26:26;100895.97;;;20.43;100.00
3142;BME280;1581;51.568;6.998;2023-08-24T05:28:54;100887.38;;;20.46;100.00
3142;BME280;1581;51.568;6.998;2023-08-24T05:31:21;100892.53;;;20.48;100.00
3142;BME280;1581;51.568;6.998;2023-08-24T05:33:49;100893.00;;;20.45;100.00
3142;BME280;1581;51.568;6.998;2023-08-24T05:36:17;100883.41;;;20.54;100.00
3142;BME280;1581;51.568;6.998;2023-08-24T05:38:45;100885.03;;;20.55;100.00
3142;BME280;1581;51.568;6.998;2023-08-24T05:41:15;100881.75;;;20.53;100.00
3142;BME280;1581;51.568;6.998;2023-08-24T05:43:43;100890.41;;;20.50;100.00
3142;BME280;1581;51.568;6.998;2023-08-24T05:46:11;100900.97;;;20.51;100.00
3142;BME280;1581;51.568;6.998;2023-08-24T05:48:38;100904.06;;;20.60;100.00
3142;BME280;1581;51.568;6.998;2023-08-24T05:51:06;100906.25;;;20.63;100.00
3142;BME280;1581;51.568;6.998;2023-08-24T05:53:36;100903.00;;;20.61;100.00
3142;BME280;1581;51.568;6.998;2023-08-24T05:56:04;100905.38;;;20.57;100.00
3142;BME280;1581;51.568;6.998;2023-08-24T05:58:34;100908.91;;;20.58;100.00
3142;BME280;1581;51.568;6.998;2023-08-24T06:01:01;100901.13;;;20.61;100.00
3142;BME280;1581;51.568;6.998;2023-08-24T06:03:29;100907.28;;;20.57;100.00
3142;BME280;1581;51.568;6.998;2023-08-24T06:06:02;100918.16;;;20.62;100.00
3142;BME280;1581;51.568;6.998;2023-08-24T06:08:30;100918.81;;;20.69;100.00
3142;BME280;1581;51.568;6.998;2023-08-24T06:10:59;100921.09;;;20.77;100.00
3142;BME280;1581;51.568;6.998;2023-08-24T06:13:27;100903.63;;;20.84;100.00
3142;BME280;1581;51.568;6.998;2023-08-24T06:15:56;100892.16;;;20.98;100.00
3142;BME280;1581;51.568;6.998;2023-08-24T06:18:24;100898.28;;;21.10;100.00
3142;BME280;1581;51.568;6.998;2023-08-24T06:20:51;100890.66;;;21.07;100.00
3142;BME280;1581;51.568;6.998;2023-08-24T06:23:19;100893.41;;;21.12;100.00
3142;BME280;1581;51.568;6.998;2023-08-24T06:25:47;100895.16;;;21.23;100.00
3142;BME280;1581;51.568;6.998;2023-08-24T06:28:15;100890.88;;;21.27;100.00
3142;BME280;1581;51.568;6.998;2023-08-24T06:30:44;100884.97;;;21.30;100.00
3142;BME280;1581;51.568;6.998;2023-08-24T06:33:17;100884.19;;;21.35;100.00
3142;BME280;1581;51.568;6.998;2023-08-24T06:35:45;100882.03;;;21.37;100.00
3142;BME280;1581;51.568;6.998;2023-08-24T06:38:14;100877.44;;;21.37;100.00
3142;BME280;1581;51.568;6.998;2023-08-24T06:40:44;100880.44;;;21.41;100.00
3142;BME280;1581;51.568;6.998;2023-08-24T06:43:11;100879.75;;;21.50;100.00
3142;BME280;1581;51.568;6.998;2023-08-24T06:45:40;100875.63;;;21.48;100.00
3142;BME280;1581;51.568;6.998;2023-08-24T06:48:08;100871.41;;;21.57;100.00
3142;BME280;1581;51.568;6.998;2023-08-24T06:50:37;100868.13;;;21.55;100.00
3142;BME280;1581;51.568;6.998;2023-08-24T06:53:05;100870.59;;;21.56;100.00
3142;BME280;1581;51.568;6.998;2023-08-24T06:55:33;100868.19;;;21.60;100.00
3142;BME280;1581;51.568;6.998;2023-08-24T06:58:03;100860.91;;;21.60;100.00
3142;BME280;1581;51.568;6.998;2023-08-24T07:00:32;100862.00;;;21.64;100.00
3142;BME280;1581;51.568;6.998;2023-08-24T07:03:00;100857.72;;;21.68;100.00
3142;BME280;1581;51.568;6.998;2023-08-24T07:05:28;100853.09;;;21.68;100.00
3142;BME280;1581;51.568;6.998;2023-08-24T07:07:58;100854.72;;;21.69;100.00
3142;BME280;1581;51.568;6.998;2023-08-24T07:10:26;100854.00;;;21.79;100.00
3142;BME280;1581;51.568;6.998;2023-08-24T07:12:54;100861.31;;;21.78;100.00
3142;BME280;1581;51.568;6.998;2023-08-24T07:15:22;100855.09;;;21.83;100.00
3142;BME280;1581;51.568;6.998;2023-08-24T07:17:50;100860.31;;;21.89;100.00
3142;BME280;1581;51.568;6.998;2023-08-24T07:20:18;100856.81;;;21.94;100.00
3142;BME280;1581;51.568;6.998;2023-08-24T07:22:47;100856.31;;;21.97;100.00
3142;BME280;1581;51.568;6.998;2023-08-24T07:25:18;100856.88;;;21.99;100.00
3142;BME280;1581;51.568;6.998;2023-08-24T07:27:46;100852.03;;;22.06;100.00
3142;BME280;1581;51.568;6.998;2023-08-24T07:30:23;100859.97;;;22.12;100.00
3142;BME280;1581;51.568;6.998;2023-08-24T07:32:50;100854.03;;;22.20;100.00
3142;BME280;1581;51.568;6.998;2023-08-24T07:35:19;100842.41;;;22.25;100.00
3142;BME280;1581;51.568;6.998;2023-08-24T07:37:48;100839.50;;;22.31;100.00
3142;BME280;1581;51.568;6.998;2023-08-24T07:40:17;100832.75;;;22.39;100.00
3142;BME280;1581;51.568;6.998;2023-08-24T07:42:46;100824.09;;;22.47;100.00
3142;BME280;1581;51.568;6.998;2023-08-24T07:45:17;100821.94;;;22.54;100.00
3142;BME280;1581;51.568;6.998;2023-08-24T07:47:45;100817.13;;;22.60;100.00
3142;BME280;1581;51.568;6.998;2023-08-24T07:50:13;100817.69;;;22.67;100.00
3142;BME280;1581;51.568;6.998;2023-08-24T07:52:42;100815.28;;;22.81;100.00
3142;BME280;1581;51.568;6.998;2023-08-24T07:55:10;100831.06;;;22.89;100.00
3142;BME280;1581;51.568;6.998;2023-08-24T07:57:40;100835.97;;;22.92;100.00
3142;BME280;1581;51.568;6.998;2023-08-24T08:00:09;100834.38;;;22.96;100.00
3142;BME280;1581;51.568;6.998;2023-08-24T08:02:37;100844.50;;;23.10;100.00
3142;BME280;1581;51.568;6.998;2023-08-24T08:05:06;100846.13;;;23.11;100.00
3142;BME280;1581;51.568;6.998;2023-08-24T08:07:36;100850.78;;;23.16;100.00
3142;BME280;1581;51.568;6.998;2023-08-24T08:10:07;100848.88;;;23.21;100.00
3142;BME280;1581;51.568;6.998;2023-08-24T08:12:41;100850.53;;;23.27;100.00
3142;BME280;1581;51.568;6.998;2023-08-24T08:15:09;100852.19;;;23.38;100.00
3142;BME280;1581;51.568;6.998;2023-08-24T08:17:43;100850.84;;;23.46;100.00
3142;BME280;1581;51.568;6.998;2023-08-24T08:20:14;100850.03;;;23.50;100.00
3142;BME280;1581;51.568;6.998;2023-08-24T08:22:42;100843.78;;;23.59;100.00
3142;BME280;1581;51.568;6.998;2023-08-24T08:25:10;100844.88;;;23.68;100.00
3142;BME280;1581;51.568;6.998;2023-08-24T08:27:39;100840.03;;;23.75;100.00
3142;BME280;1581;51.568;6.998;2023-08-24T08:30:08;100839.75;;;23.87;100.00
3142;BME280;1581;51.568;6.998;2023-08-24T08:32:36;100831.56;;;23.92;100.00
3142;BME280;1581;51.568;6.998;2023-08-24T08:35:08;100825.28;;;24.06;100.00
3142;BME280;1581;51.568;6.998;2023-08-24T08:37:36;100828.00;;;24.21;100.00
3142;BME280;1581;51.568;6.998;2023-08-24T08:40:05;100823.31;;;24.32;100.00
3142;BME280;1581;51.568;6.998;2023-08-24T08:42:34;100825.50;;;24.44;100.00
3142;BME280;1581;51.568;6.998;2023-08-24T08:45:09;100827.66;;;24.52;100.00
3142;BME280;1581;51.568;6.998;2023-08-24T08:47:37;100830.59;;;24.66;100.00
3142;BME280;1581;51.568;6.998;2023-08-24T08:50:08;100817.47;;;24.83;100.00
3142;BME280;1581;51.568;6.998;2023-08-24T08:52:37;100823.13;;;24.96;100.00
3142;BME280;1581;51.568;6.998;2023-08-24T08:55:05;100817.38;;;25.03;100.00
3142;BME280;1581;51.568;6.998;2023-08-24T08:57:36;100808.88;;;25.09;100.00
3142;BME280;1581;51.568;6.998;2023-08-24T09:00:10;100805.78;;;25.25;100.00
3142;BME280;1581;51.568;6.998;2023-08-24T09:02:39;100801.91;;;25.36;100.00
3142;BME280;1581;51.568;6.998;2023-08-24T09:05:10;100802.91;;;25.50;100.00
3142;BME280;1581;51.568;6.998;2023-08-24T09:07:40;100799.00;;;25.56;100.00
3142;BME280;1581;51.568;6.998;2023-08-24T09:10:08;100802.25;;;25.63;100.00
3142;BME280;1581;51.568;6.998;2023-08-24T09:12:36;100790.72;;;25.71;100.00
3142;BME280;1581;51.568;6.998;2023-08-24T09:15:07;100789.56;;;25.82;100.00
3142;BME280;1581;51.568;6.998;2023-08-24T09:17:35;100789.94;;;25.99;100.00
3142;BME280;1581;51.568;6.998;2023-08-24T09:20:08;100777.50;;;26.12;100.00
3142;BME280;1581;51.568;6.998;2023-08-24T09:22:37;100771.91;;;26.26;100.00
3142;BME280;1581;51.568;6.998;2023-08-24T09:25:09;100770.38;;;26.39;100.00
3142;BME280;1581;51.568;6.998;2023-08-24T09:27:37;100760.41;;;26.53;100.00
3142;BME280;1581;51.568;6.998;2023-08-24T09:30:08;100747.72;;;26.62;100.00
3142;BME280;1581;51.568;6.998;2023-08-24T09:32:36;100733.31;;;26.75;99.68
3142;BME280;1581;51.568;6.998;2023-08-24T09:35:08;100727.09;;;26.88;98.59
3142;BME280;1581;51.568;6.998;2023-08-24T09:37:37;100718.22;;;26.96;99.16
3142;BME280;1581;51.568;6.998;2023-08-24T09:40:07;100708.78;;;27.06;98.98
3142;BME280;1581;51.568;6.998;2023-08-24T09:42:41;100706.19;;;27.15;99.89
3142;BME280;1581;51.568;6.998;2023-08-24T09:45:17;100703.41;;;27.20;97.09
3142;BME280;1581;51.568;6.998;2023-08-24T09:47:49;100696.25;;;27.37;97.52
3142;BME280;1581;51.568;6.998;2023-08-24T09:50:20;100694.53;;;27.41;98.03
3142;BME280;1581;51.568;6.998;2023-08-24T09:52:50;100695.78;;;27.49;98.21
3142;BME280;1581;51.568;6.998;2023-08-24T09:55:24;100697.16;;;27.65;96.91
3142;BME280;1581;51.568;6.998;2023-08-24T09:57:55;100693.72;;;27.73;95.85
3142;BME280;1581;51.568;6.998;2023-08-24T10:00:29;100698.72;;;27.84;94.21
3142;BME280;1581;51.568;6.998;2023-08-24T10:03:00;100702.28;;;27.98;92.42
3142;BME280;1581;51.568;6.998;2023-08-24T10:05:32;100703.81;;;28.04;92.50
3142;BME280;1581;51.568;6.998;2023-08-24T10:08:01;100705.00;;;28.11;94.21
3142;BME280;1581;51.568;6.998;2023-08-24T10:10:31;100712.47;;;28.24;93.12
3142;BME280;1581;51.568;6.998;2023-08-24T10:13:06;100714.09;;;28.25;91.73
3142;BME280;1581;51.568;6.998;2023-08-24T10:15:38;100726.34;;;28.41;89.02
3142;BME280;1581;51.568;6.998;2023-08-24T10:18:13;100736.31;;;28.51;90.75
3142;BME280;1581;51.568;6.998;2023-08-24T10:20:42;100742.38;;;28.61;89.66
3142;BME280;1581;51.568;6.998;2023-08-24T10:23:12;100736.06;;;28.74;89.18
3142;BME280;1581;51.568;6.998;2023-08-24T10:25:44;100737.31;;;28.82;88.39
3142;BME280;1581;51.568;6.998;2023-08-24T10:28:15;100725.88;;;29.01;87.50
3142;BME280;1581;51.568;6.998;2023-08-24T10:30:47;100724.34;;;29.09;86.32
3142;BME280;1581;51.568;6.998;2023-08-24T10:33:18;100734.31;;;29.27;87.91
3142;BME280;1581;51.568;6.998;2023-08-24T10:35:52;100746.47;;;29.48;86.21
3142;BME280;1581;51.568;6.998;2023-08-24T10:38:26;100743.66;;;29.61;84.64
3142;BME280;1581;51.568;6.998;2023-08-24T10:41:01;100734.66;;;29.69;84.65
3142;BME280;1581;51.568;6.998;2023-08-24T10:43:34;100738.06;;;29.74;83.90
3142;BME280;1581;51.568;6.998;2023-08-24T10:46:03;100729.44;;;29.89;83.82
3142;BME280;1581;51.568;6.998;2023-08-24T10:48:57;100730.56;;;29.88;82.28
3142;BME280;1581;51.568;6.998;2023-08-24T10:51:26;100737.91;;;30.01;82.81
3142;BME280;1581;51.568;6.998;2023-08-24T10:53:57;100742.47;;;30.06;83.34
3142;BME280;1581;51.568;6.998;2023-08-24T10:56:37;100731.78;;;30.04;82.40
3142;BME280;1581;51.568;6.998;2023-08-24T10:59:13;100726.19;;;30.18;83.07
3142;BME280;1581;51.568;6.998;2023-08-24T11:01:55;100718.63;;;30.32;83.10
3142;BME280;1581;51.568;6.998;2023-08-24T11:04:24;100715.28;;;30.43;83.13
3142;BME280;1581;51.568;6.998;2023-08-24T11:06:54;100705.88;;;30.44;79.74
3142;BME280;1581;51.568;6.998;2023-08-24T11:09:22;100708.03;;;30.56;82.43
3142;BME280;1581;51.568;6.998;2023-08-24T11:11:59;100705.00;;;30.57;83.27
3142;BME280;1581;51.568;6.998;2023-08-24T11:14:27;100706.13;;;30.65;83.38
3142;BME280;1581;51.568;6.998;2023-08-24T11:17:00;100694.47;;;30.67;82.03
3142;BME280;1581;51.568;6.998;2023-08-24T11:19:29;100700.63;;;30.73;81.89
3142;BME280;1581;51.568;6.998;2023-08-24T11:21:58;100691.25;;;30.74;80.19
3142;BME280;1581;51.568;6.998;2023-08-24T11:24:26;100682.19;;;30.73;77.90
3142;BME280;1581;51.568;6.998;2023-08-24T11:26:54;100681.03;;;30.66;75.40
3142;BME280;1581;51.568;6.998;2023-08-24T11:29:24;100673.13;;;30.65;71.03
3142;BME280;1581;51.568;6.998;2023-08-24T11:31:52;100659.81;;;30.66;72.17
3142;BME280;1581;51.568;6.998;2023-08-24T11:34:22;100651.72;;;30.53;73.73
3142;BME280;1581;51.568;6.998;2023-08-24T11:36:50;100656.34;;;30.36;74.36
3142;BME280;1581;51.568;6.998;2023-08-24T11:39:20;100651.31;;;30.21;75.37
3142;BME280;1581;51.568;6.998;2023-08-24T11:41:59;100645.16;;;29.85;77.52
3142;BME280;1581;51.568;6.998;2023-08-24T11:44:28;100656.53;;;29.62;82.59
3142;BME280;1581;51.568;6.998;2023-08-24T11:46:57;100657.19;;;29.37;82.68
3142;BME280;1581;51.568;6.998;2023-08-24T11:49:29;100661.22;;;29.09;80.75
3142;BME280;1581;51.568;6.998;2023-08-24T11:52:00;100666.25;;;28.93;75.96
3142;BME280;1581;51.568;6.998;2023-08-24T11:54:35;100684.88;;;28.83;77.40
3142;BME280;1581;51.568;6.998;2023-08-24T11:57:08;100691.78;;;28.81;76.43
3142;BME280;1581;51.568;6.998;2023-08-24T11:59:38;100687.88;;;28.95;78.75
3142;BME280;1581;51.568;6.998;2023-08-24T12:02:06;100695.44;;;29.11;74.75
3142;BME280;1581;51.568;6.998;2023-08-24T12:04:40;100694.22;;;29.39;74.40
3142;BME280;1581;51.568;6.998;2023-08-24T12:07:10;100687.53;;;29.54;76.23
3142;BME280;1581;51.568;6.998;2023-08-24T12:09:38;100679.56;;;29.74;77.68
3142;BME280;1581;51.568;6.998;2023-08-24T12:12:11;100675.22;;;29.81;78.42
3142;BME280;1581;51.568;6.998;2023-08-24T12:14:42;100682.84;;;29.84;77.13
3142;BME280;1581;51.568;6.998;2023-08-24T12:17:11;100685.47;;;29.89;75.19
3142;BME280;1581;51.568;6.998;2023-08-24T12:19:43;100672.28;;;30.00;72.88
3142;BME280;1581;51.568;6.998;2023-08-24T12:22:13;100678.09;;;29.98;70.95
3142;BME280;1581;51.568;6.998;2023-08-24T12:24:44;100666.28;;;29.98;72.83
3142;BME280;1581;51.568;6.998;2023-08-24T12:27:18;100652.69;;;30.01;74.87
3142;BME280;1581;51.568;6.998;2023-08-24T12:29:47;100644.00;;;29.99;76.49
3142;BME280;1581;51.568;6.998;2023-08-24T12:32:16;100636.22;;;30.01;75.55
3142;BME280;1581;51.568;6.998;2023-08-24T12:34:48;100627.34;;;30.04;75.93
3142;BME280;1581;51.568;6.998;2023-08-24T12:37:18;100620.56;;;30.02;77.85
3142;BME280;1581;51.568;6.998;2023-08-24T12:39:46;100618.59;;;29.94;79.23
3142;BME280;1581;51.568;6.998;2023-08-24T12:42:15;100606.94;;;29.58;73.52
3142;BME280;1581;51.568;6.998;2023-08-24T12:44:43;100597.22;;;29.61;77.50
3142;BME280;1581;51.568;6.998;2023-08-24T12:47:11;100584.44;;;29.48;80.64
3142;BME280;1581;51.568;6.998;2023-08-24T12:49:39;100573.91;;;29.19;78.71
3142;BME280;1581;51.568;6.998;2023-08-24T12:52:10;100570.91;;;28.99;82.74
3142;BME280;1581;51.568;6.998;2023-08-24T12:54:39;100564.88;;;28.75;84.84
3142;BME280;1581;51.568;6.998;2023-08-24T12:57:08;100567.31;;;28.55;86.68
3142;BME280;1581;51.568;6.998;2023-08-24T12:59:35;100556.00;;;28.34;88.76
3142;BME280;1581;51.568;6.998;2023-08-24T13:02:04;100556.00;;;28.21;88.94
3142;BME280;1581;51.568;6.998;2023-08-24T13:04:32;100541.22;;;28.08;91.53
3142;BME280;1581;51.568;6.998;2023-08-24T13:07:00;100522.16;;;28.03;89.70
3142;BME280;1581;51.568;6.998;2023-08-24T13:09:29;100504.09;;;28.02;92.36
3142;BME280;1581;51.568;6.998;2023-08-24T13:11:57;100505.63;;;28.08;92.52
3142;BME280;1581;51.568;6.998;2023-08-24T13:14:25;100515.00;;;28.16;90.93